sensor_id;sensor_type;location;lat;lon;timestamp;pressure;altitude;pressure_sealevel;temperature;humidity
40490;BME280;26196;52.302;10.572;2023-04-06T00:06:27;101093.56;;;11.61;37.48
40490;BME280;26196;52.302;10.572;2023-04-06T00:11:02;101096.31;;;11.55;37.85
40490;BME280;26196;52.302;10.572;2023-04-06T00:15:03;101088.56;;;11.51;37.52
40490;BME280;26196;52.302;10.572;2023-04-06T00:19:05;101085.16;;;11.47;37.46
40490;BME280;26196;52.302;10.572;2023-04-06T00:23:06;101086.06;;;11.45;37.79
40490;BME280;26196;52.302;10.572;2023-04-06T00:27:06;101080.94;;;11.38;37.57
40490;BME280;26196;52.302;10.572;2023-04-06T00:31:06;101083.56;;;11.38;37.26
40490;BME280;26196;52.302;10.572;2023-04-06T00:35:07;101079.22;;;11.37;37.23
40490;BME280;26196;52.302;10.572;2023-04-06T00:39:07;101075.78;;;11.34;37.26
40490;BME280;26196;52.302;10.572;2023-04-06T00:43:08;101071.53;;;11.30;37.32
40490;BME280;26196;52.302;10.572;2023-04-06T00:47:11;101074.25;;;11.25;37.43
40490;BME280;26196;52.302;10.572;2023-04-06T00:51:12;101066.44;;;11.22;37.40
40490;BME280;26196;52.302;10.572;2023-04-06T00:55:12;101064.63;;;11.26;37.35
40490;BME280;26196;52.302;10.572;2023-04-06T00:59:13;101069.13;;;11.19;37.59
40490;BME280;26196;52.302;10.572;2023-04-06T01:03:13;101065.69;;;11.17;37.13
40490;BME280;26196;52.302;10.572;2023-04-06T01:07:50;101053.50;;;11.14;36.88
40490;BME280;26196;52.302;10.572;2023-04-06T01:11:51;101057.13;;;11.09;36.96
40490;BME280;26196;52.302;10.572;2023-04-06T01:15:51;101048.50;;;11.04;36.89
40490;BME280;26196;52.302;10.572;2023-04-06T01:19:52;101045.09;;;11.00;37.05
40490;BME280;26196;52.302;10.572;2023-04-06T01:23:53;101045.16;;;10.95;36.90
40490;BME280;26196;52.302;10.572;2023-04-06T01:27:54;101048.63;;;10.96;37.01
40490;BME280;26196;52.302;10.572;2023-04-06T01:31:54;101046.03;;;10.96;36.80
40490;BME280;26196;52.302;10.572;2023-04-06T01:36:32;101053.09;;;10.92;37.04
40490;BME280;26196;52.302;10.572;2023-04-06T01:40:33;101045.31;;;10.88;37.25
40490;BME280;26196;52.302;10.572;2023-04-06T01:45:07;101047.09;;;10.86;37.00
40490;BME280;26196;52.302;10.572;2023-04-06T01:49:08;101047.97;;;10.86;37.15
40490;BME280;26196;52.302;10.572;2023-04-06T01:53:08;101045.47;;;10.79;36.71
40490;BME280;26196;52.302;10.572;2023-04-06T01:57:10;101041.16;;;10.76;36.57
40490;BME280;26196;52.302;10.572;2023-04-06T02:01:10;101023.09;;;10.64;36.98
40490;BME280;26196;52.302;10.572;2023-04-06T02:05:48;101042.19;;;10.69;36.76
40490;BME280;26196;52.302;10.572;2023-04-06T02:09:48;101030.19;;;10.59;36.69
40490;BME280;26196;52.302;10.572;2023-04-06T02:13:48;101038.81;;;10.64;36.64
40490;BME280;26196;52.302;10.572;2023-04-06T02:17:50;101031.97;;;10.57;36.78
40490;BME280;26196;52.302;10.572;2023-04-06T02:22:24;101039.91;;;10.50;36.65
40490;BME280;26196;52.302;10.572;2023-04-06T02:26:25;101038.25;;;10.46;36.71
40490;BME280;26196;52.302;10.572;2023-04-06T02:30:25;101034.78;;;10.46;36.51
40490;BME280;26196;52.302;10.572;2023-04-06T02:34:26;101038.31;;;10.42;36.94
40490;BME280;26196;52.302;10.572;2023-04-06T02:38:26;101030.53;;;10.40;36.47
40490;BME280;26196;52.302;10.572;2023-04-06T02:43:01;101024.41;;;10.40;36.43
40490;BME280;26196;52.302;10.572;2023-04-06T02:47:01;101016.69;;;10.32;37.00
40490;BME280;26196;52.302;10.572;2023-04-06T02:51:01;101023.72;;;10.30;36.82
40490;BME280;26196;52.302;10.572;2023-04-06T02:55:02;101022.81;;;10.33;36.82
40490;BME280;26196;52.302;10.572;2023-04-06T02:59:02;101020.28;;;10.25;36.68
40490;BME280;26196;52.302;10.572;2023-04-06T03:03:03;101024.63;;;10.26;36.26
40490;BME280;26196;52.302;10.572;2023-04-06T03:07:37;101022.91;;;10.25;36.22
40490;BME280;26196;52.302;10.572;2023-04-06T03:11:38;101023.84;;;10.21;36.21
40490;BME280;26196;52.302;10.572;2023-04-06T03:16:15;101021.22;;;10.21;36.81
40490;BME280;26196;52.302;10.572;2023-04-06T03:20:16;101016.94;;;10.17;36.58
40490;BME280;26196;52.302;10.572;2023-04-06T03:24:16;101024.03;;;10.08;36.53
40490;BME280;26196;52.302;10.572;2023-04-06T03:28:16;101015.38;;;10.06;36.59
40490;BME280;26196;52.302;10.572;2023-04-06T03:32:54;101024.09;;;10.05;36.26
40490;BME280;26196;52.302;10.572;2023-04-06T03:36:54;101018.91;;;10.02;36.36
40490;BME280;26196;52.302;10.572;2023-04-06T03:40:54;101020.75;;;9.99;36.30
40490;BME280;26196;52.302;10.572;2023-04-06T03:44:55;101019.84;;;10.00;36.20
40490;BME280;26196;52.302;10.572;2023-04-06T03:48:55;101028.59;;;9.97;36.87
40490;BME280;26196;52.302;10.572;2023-04-06T03:53:33;101029.50;;;9.95;36.84
40490;BME280;26196;52.302;10.572;2023-04-06T03:57:34;101020.03;;;9.88;36.38
40490;BME280;26196;52.302;10.572;2023-04-06T04:02:08;101033.09;;;9.89;36.61
40490;BME280;26196;52.302;10.572;2023-04-06T04:06:08;101027.91;;;9.86;36.54
40490;BME280;26196;52.302;10.572;2023-04-06T04:10:09;101027.19;;;9.78;36.14
40490;BME280;26196;52.302;10.572;2023-04-06T04:14:43;101034.13;;;9.79;36.21
40490;BME280;26196;52.302;10.572;2023-04-06T04:18:44;101031.63;;;9.73;36.70
40490;BME280;26196;52.302;10.572;2023-04-06T04:22:45;101028.16;;;9.71;36.38
40490;BME280;26196;52.302;10.572;2023-04-06T04:27:01;101038.72;;;9.64;36.64
40490;BME280;26196;52.302;10.572;2023-04-06T04:31:01;101038.72;;;9.64;37.01
40490;BME280;26196;52.302;10.572;2023-04-06T04:35:02;101034.34;;;9.63;36.24
40490;BME280;26196;52.302;10.572;2023-04-06T04:39:02;101038.72;;;9.64;36.09
40490;BME280;26196;52.302;10.572;2023-04-06T04:43:02;101028.28;;;9.61;36.36
40490;BME280;26196;52.302;10.572;2023-04-06T04:47:03;101029.22;;;9.56;36.83
40490;BME280;26196;52.302;10.572;2023-04-06T04:51:04;101032.75;;;9.55;36.33
40490;BME280;26196;52.302;10.572;2023-04-06T04:55:39;101038.88;;;9.52;36.32
40490;BME280;26196;52.302;10.572;2023-04-06T04:59:39;101036.28;;;9.51;36.83
40490;BME280;26196;52.302;10.572;2023-04-06T05:04:17;101037.13;;;9.51;36.84
40490;BME280;26196;52.302;10.572;2023-04-06T05:08:17;101026.88;;;9.39;36.33
40490;BME280;26196;52.302;10.572;2023-04-06T05:12:18;101032.06;;;9.42;36.74
40490;BME280;26196;52.302;10.572;2023-04-06T05:16:53;101026.00;;;9.38;36.67
40490;BME280;26196;52.302;10.572;2023-04-06T05:20:53;101027.78;;;9.36;36.71
40490;BME280;26196;52.302;10.572;2023-04-06T05:24:54;101030.41;;;9.35;36.91
40490;BME280;26196;52.302;10.572;2023-04-06T05:29:28;101032.16;;;9.33;36.27
40490;BME280;26196;52.302;10.572;2023-04-06T05:33:29;101027.88;;;9.29;37.17
40490;BME280;26196;52.302;10.572;2023-04-06T05:37:30;101021.75;;;9.31;36.84
40490;BME280;26196;52.302;10.572;2023-04-06T05:42:05;101031.34;;;9.29;36.91
40490;BME280;26196;52.302;10.572;2023-04-06T05:46:07;101027.91;;;9.27;37.17
40490;BME280;26196;52.302;10.572;2023-04-06T05:50:07;101036.59;;;9.28;36.75
40490;BME280;26196;52.302;10.572;2023-04-06T05:58:45;101028.84;;;9.22;36.91
40490;BME280;26196;52.302;10.572;2023-04-06T06:03:20;101034.03;;;9.25;36.84
40490;BME280;26196;52.302;10.572;2023-04-06T06:07:55;101028.84;;;9.22;36.97
40490;BME280;26196;52.302;10.572;2023-04-06T06:17:04;101027.13;;;9.17;37.94
40490;BME280;26196;52.302;10.572;2023-04-06T06:21:42;101029.75;;;9.19;37.50
40490;BME280;26196;52.302;10.572;2023-04-06T06:30:39;101025.34;;;9.23;37.96
40490;BME280;26196;52.302;10.572;2023-04-06T06:35:13;101027.13;;;9.20;37.85
40490;BME280;26196;52.302;10.572;2023-04-06T06:39:14;101024.56;;;9.16;38.35
40490;BME280;26196;52.302;10.572;2023-04-06T06:43:48;101028.84;;;9.23;38.38
40490;BME280;26196;52.302;10.572;2023-04-06T06:47:49;101029.69;;;9.22;38.18
40490;BME280;26196;52.302;10.572;2023-04-06T06:51:49;101028.81;;;9.25;38.49
40490;BME280;26196;52.302;10.572;2023-04-06T06:56:24;101033.13;;;9.27;38.92
40490;BME280;26196;52.302;10.572;2023-04-06T07:00:26;101022.66;;;9.29;39.72
40490;BME280;26196;52.302;10.572;2023-04-06T07:04:27;101033.97;;;9.28;38.94
40490;BME280;26196;52.302;10.572;2023-04-06T07:09:02;101023.47;;;9.34;39.13
40490;BME280;26196;52.302;10.572;2023-04-06T07:13:03;101029.59;;;9.31;39.07
40490;BME280;26196;52.302;10.572;2023-04-06T07:17:38;101035.63;;;9.35;39.74
40490;BME280;26196;52.302;10.572;2023-04-06T07:26:52;101025.09;;;9.41;39.55
40490;BME280;26196;52.302;10.572;2023-04-06T07:36:07;101025.53;;;9.69;40.95
40490;BME280;26196;52.302;10.572;2023-04-06T07:49:59;101017.63;;;9.74;41.33
40490;BME280;26196;52.302;10.572;2023-04-06T07:54:34;101010.59;;;9.79;41.29
40490;BME280;26196;52.302;10.572;2023-04-06T07:59:10;101018.38;;;9.83;42.31
40490;BME280;26196;52.302;10.572;2023-04-06T08:03:45;101015.69;;;9.88;42.17
40490;BME280;26196;52.302;10.572;2023-04-06T08:08:22;101017.34;;;9.92;42.27
40490;BME280;26196;52.302;10.572;2023-04-06T08:17:37;101023.38;;;9.96;42.56
40490;BME280;26196;52.302;10.572;2023-04-06T08:21:37;101011.16;;;9.98;42.40
40490;BME280;26196;52.302;10.572;2023-04-06T08:25:39;101008.47;;;10.02;42.48
40490;BME280;26196;52.302;10.572;2023-04-06T08:29:40;101010.16;;;10.03;42.91
40490;BME280;26196;52.302;10.572;2023-04-06T08:34:15;101014.47;;;10.07;42.75
40490;BME280;26196;52.302;10.572;2023-04-06T08:38:52;101018.78;;;10.10;42.60
40490;BME280;26196;52.302;10.572;2023-04-06T08:42:59;101015.25;;;10.13;42.96
40490;BME280;26196;52.302;10.572;2023-04-06T08:47:33;101019.59;;;10.15;43.04
40490;BME280;26196;52.302;10.572;2023-04-06T08:52:08;101013.25;;;10.27;42.28
40490;BME280;26196;52.302;10.572;2023-04-06T08:56:44;101007.97;;;10.33;42.28
40490;BME280;26196;52.302;10.572;2023-04-06T09:00:46;101019.22;;;10.37;42.13
40490;BME280;26196;52.302;10.572;2023-04-06T09:09:58;101021.69;;;10.46;41.78
40490;BME280;26196;52.302;10.572;2023-04-06T09:19:11;101019.75;;;10.56;41.79
40490;BME280;26196;52.302;10.572;2023-04-06T09:23:46;101019.66;;;10.60;41.98
40490;BME280;26196;52.302;10.572;2023-04-06T09:32:47;101000.34;;;10.66;41.75
40490;BME280;26196;52.302;10.572;2023-04-06T09:36:48;100999.41;;;10.71;41.91
40490;BME280;26196;52.302;10.572;2023-04-06T09:41:29;101007.97;;;10.77;41.96
40490;BME280;26196;52.302;10.572;2023-04-06T09:50:03;100992.94;;;10.88;41.76
40490;BME280;26196;52.302;10.572;2023-04-06T09:54:41;100998.97;;;10.91;42.38
40490;BME280;26196;52.302;10.572;2023-04-06T10:03:56;100986.72;;;10.93;42.70
40490;BME280;26196;52.302;10.572;2023-04-06T10:08:27;100989.19;;;11.00;42.66
40490;BME280;26196;52.302;10.572;2023-04-06T10:17:24;100983.78;;;11.07;42.79
40490;BME280;26196;52.302;10.572;2023-04-06T10:21:59;100978.47;;;11.10;42.95
40490;BME280;26196;52.302;10.572;2023-04-06T10:30:35;100980.06;;;11.17;43.12
40490;BME280;26196;52.302;10.572;2023-04-06T10:35:10;100972.94;;;11.24;42.83
40490;BME280;26196;52.302;10.572;2023-04-06T10:39:45;100978.94;;;11.29;43.07
40490;BME280;26196;52.302;10.572;2023-04-06T10:44:20;100965.72;;;11.34;42.81
40490;BME280;26196;52.302;10.572;2023-04-06T10:48:55;100969.09;;;11.39;42.71
40490;BME280;26196;52.302;10.572;2023-04-06T10:53:30;100962.88;;;11.45;42.80
40490;BME280;26196;52.302;10.572;2023-04-06T10:58:07;100954.84;;;11.51;42.67
40490;BME280;26196;52.302;10.572;2023-04-06T11:02:42;100950.38;;;11.54;42.83
40490;BME280;26196;52.302;10.572;2023-04-06T11:07:22;100949.44;;;11.58;43.22
40490;BME280;26196;52.302;10.572;2023-04-06T11:16:30;100945.72;;;11.67;43.31
40490;BME280;26196;52.302;10.572;2023-04-06T11:21:04;100940.34;;;11.73;43.08
40490;BME280;26196;52.302;10.572;2023-04-06T11:25:39;100943.69;;;11.78;43.12
40490;BME280;26196;52.302;10.572;2023-04-06T11:30:15;100943.53;;;11.85;42.78
40490;BME280;26196;52.302;10.572;2023-04-06T11:34:49;100932.06;;;11.90;42.69
40490;BME280;26196;52.302;10.572;2023-04-06T11:39:24;100925.78;;;11.96;42.64
40490;BME280;26196;52.302;10.572;2023-04-06T11:52:33;100918.28;;;12.15;42.32
40490;BME280;26196;52.302;10.572;2023-04-06T12:01:08;100910.97;;;12.26;42.76
40490;BME280;26196;52.302;10.572;2023-04-06T12:10:23;100908.97;;;12.36;43.34
40490;BME280;26196;52.302;10.572;2023-04-06T12:15:00;100911.44;;;12.40;45.16
40490;BME280;26196;52.302;10.572;2023-04-06T12:24:12;100910.34;;;12.49;44.60
40490;BME280;26196;52.302;10.572;2023-04-06T12:28:49;100908.47;;;12.53;44.93
40490;BME280;26196;52.302;10.572;2023-04-06T12:51:50;100873.69;;;12.74;47.08
40490;BME280;26196;52.302;10.572;2023-04-06T13:00:48;100865.59;;;12.82;45.35
40490;BME280;26196;52.302;10.572;2023-04-06T13:05:23;100861.13;;;12.85;44.31
40490;BME280;26196;52.302;10.572;2023-04-06T13:10:00;100860.16;;;12.88;45.96
40490;BME280;26196;52.302;10.572;2023-04-06T13:14:38;100862.63;;;12.92;45.66
40490;BME280;26196;52.302;10.572;2023-04-06T13:19:13;100861.66;;;12.95;45.64
40490;BME280;26196;52.302;10.572;2023-04-06T13:23:51;100856.31;;;12.98;48.66
40490;BME280;26196;52.302;10.572;2023-04-06T13:28:28;100841.31;;;13.02;48.82
40490;BME280;26196;52.302;10.572;2023-04-06T13:33:03;100839.50;;;13.04;46.80
40490;BME280;26196;52.302;10.572;2023-04-06T13:37:38;100830.59;;;13.08;44.59
40490;BME280;26196;52.302;10.572;2023-04-06T13:50:44;100832.94;;;13.17;44.23
40490;BME280;26196;52.302;10.572;2023-04-06T13:55:19;100822.31;;;13.20;47.28
40490;BME280;26196;52.302;10.572;2023-04-06T13:59:56;100823.06;;;13.24;47.40
40490;BME280;26196;52.302;10.572;2023-04-06T14:09:08;100828.00;;;13.34;49.29
40490;BME280;26196;52.302;10.572;2023-04-06T14:13:43;100818.38;;;13.35;50.02
40490;BME280;26196;52.302;10.572;2023-04-06T14:22:56;100817.41;;;13.38;44.52
40490;BME280;26196;52.302;10.572;2023-04-06T14:27:34;100807.75;;;13.38;46.09
40490;BME280;26196;52.302;10.572;2023-04-06T14:32:08;100803.22;;;13.42;46.32
40490;BME280;26196;52.302;10.572;2023-04-06T14:36:09;100810.16;;;13.44;47.78
40490;BME280;26196;52.302;10.572;2023-04-06T14:40:43;100803.06;;;13.46;49.13
40490;BME280;26196;52.302;10.572;2023-04-06T14:49:41;100802.00;;;13.52;47.35
40490;BME280;26196;52.302;10.572;2023-04-06T14:54:15;100796.69;;;13.53;44.90
40490;BME280;26196;52.302;10.572;2023-04-06T14:58:53;100789.59;;;13.55;44.90
40490;BME280;26196;52.302;10.572;2023-04-06T15:03:28;100793.97;;;13.56;45.30
40490;BME280;26196;52.302;10.572;2023-04-06T15:08:02;100796.47;;;13.60;44.51
40490;BME280;26196;52.302;10.572;2023-04-06T15:12:37;100787.66;;;13.61;44.15
40490;BME280;26196;52.302;10.572;2023-04-06T15:21:52;100784.94;;;13.64;44.18
40490;BME280;26196;52.302;10.572;2023-04-06T15:26:29;100783.09;;;13.66;43.64
40490;BME280;26196;52.302;10.572;2023-04-06T15:35:41;100774.25;;;13.68;43.83
40490;BME280;26196;52.302;10.572;2023-04-06T15:40:19;100778.59;;;13.69;43.34
40490;BME280;26196;52.302;10.572;2023-04-06T15:44:57;100778.59;;;13.69;45.35
40490;BME280;26196;52.302;10.572;2023-04-06T15:48:57;100777.69;;;13.70;43.61
40490;BME280;26196;52.302;10.572;2023-04-06T15:53:35;100775.81;;;13.74;42.92
40490;BME280;26196;52.302;10.572;2023-04-06T15:58:09;100776.72;;;13.73;44.78
40490;BME280;26196;52.302;10.572;2023-04-06T16:07:23;100764.38;;;13.75;44.46
40490;BME280;26196;52.302;10.572;2023-04-06T16:11:58;100775.84;;;13.72;42.48
40490;BME280;26196;52.302;10.572;2023-04-06T16:15:59;100772.31;;;13.73;42.83
40490;BME280;26196;52.302;10.572;2023-04-06T16:19:59;100770.59;;;13.72;42.17
40490;BME280;26196;52.302;10.572;2023-04-06T16:24:00;100772.41;;;13.70;43.64
40490;BME280;26196;52.302;10.572;2023-04-06T16:28:01;100773.19;;;13.74;42.82
40490;BME280;26196;52.302;10.572;2023-04-06T16:32:35;100771.44;;;13.73;42.80
40490;BME280;26196;52.302;10.572;2023-04-06T16:37:12;100770.63;;;13.71;43.65
40490;BME280;26196;52.302;10.572;2023-04-06T16:46:28;100772.41;;;13.70;43.64
40490;BME280;26196;52.302;10.572;2023-04-06T16:51:06;100772.31;;;13.73;42.93
40490;BME280;26196;52.302;10.572;2023-04-06T16:55:44;100776.72;;;13.73;43.78
40490;BME280;26196;52.302;10.572;2023-04-06T17:00:21;100768.81;;;13.73;44.97
40490;BME280;26196;52.302;10.572;2023-04-06T17:08:59;100774.94;;;13.73;44.24
40490;BME280;26196;52.302;10.572;2023-04-06T17:13:34;100767.03;;;13.73;44.43
40490;BME280;26196;52.302;10.572;2023-04-06T17:18:09;100773.19;;;13.74;43.96
40490;BME280;26196;52.302;10.572;2023-04-06T17:22:43;100776.59;;;13.76;43.60
40490;BME280;26196;52.302;10.572;2023-04-06T17:27:19;100780.00;;;13.79;43.42
40490;BME280;26196;52.302;10.572;2023-04-06T17:31:56;100774.06;;;13.73;42.48
40490;BME280;26196;52.302;10.572;2023-04-06T17:36:33;100775.03;;;13.70;42.79
40490;BME280;26196;52.302;10.572;2023-04-06T17:41:11;100787.34;;;13.70;41.92
40490;BME280;26196;52.302;10.572;2023-04-06T17:54:50;100789.41;;;13.62;41.58
40490;BME280;26196;52.302;10.572;2023-04-06T17:59:25;100787.47;;;13.67;41.53
40490;BME280;26196;52.302;10.572;2023-04-06T18:03:59;100794.53;;;13.65;40.92
40490;BME280;26196;52.302;10.572;2023-04-06T18:08:36;100805.19;;;13.62;40.58
40490;BME280;26196;52.302;10.572;2023-04-06T18:13:14;100811.28;;;13.62;39.82
40490;BME280;26196;52.302;10.572;2023-04-06T18:17:49;100805.28;;;13.59;39.80
40490;BME280;26196;52.302;10.572;2023-04-06T18:22:23;100810.47;;;13.60;40.60
40490;BME280;26196;52.302;10.572;2023-04-06T18:31:38;100817.50;;;13.60;40.15
40490;BME280;26196;52.302;10.572;2023-04-06T18:49:31;100827.22;;;13.57;39.75
40490;BME280;26196;52.302;10.572;2023-04-06T18:53:31;100829.84;;;13.57;39.95
40490;BME280;26196;52.302;10.572;2023-04-06T18:57:33;100834.22;;;13.59;40.41
40490;BME280;26196;52.302;10.572;2023-04-06T19:02:07;100836.03;;;13.56;40.39
40490;BME280;26196;52.302;10.572;2023-04-06T19:06:45;100841.22;;;13.58;40.18
40490;BME280;26196;52.302;10.572;2023-04-06T19:11:19;100845.75;;;13.54;41.34
40490;BME280;26196;52.302;10.572;2023-04-06T19:15:55;100840.38;;;13.57;40.65
40490;BME280;26196;52.302;10.572;2023-04-06T19:20:32;100842.16;;;13.57;42.03
40490;BME280;26196;52.302;10.572;2023-04-06T19:25:07;100840.34;;;13.59;40.26
40490;BME280;26196;52.302;10.572;2023-04-06T19:29:44;100838.66;;;13.56;41.53
40490;BME280;26196;52.302;10.572;2023-04-06T19:38:56;100847.38;;;13.59;42.08
40490;BME280;26196;52.302;10.572;2023-04-06T19:43:33;100849.94;;;13.60;42.23
40490;BME280;26196;52.302;10.572;2023-04-06T19:57:23;100850.59;;;13.67;41.47
40490;BME280;26196;52.302;10.572;2023-04-06T20:01:25;100847.88;;;13.68;42.88
40490;BME280;26196;52.302;10.572;2023-04-06T20:05:25;100843.59;;;13.66;40.35
40490;BME280;26196;52.302;10.572;2023-04-06T20:10:00;100845.38;;;13.65;40.57
40490;BME280;26196;52.302;10.572;2023-04-06T20:14:03;100836.75;;;13.62;40.66
40490;BME280;26196;52.302;10.572;2023-04-06T20:18:37;100853.38;;;13.62;40.23
40490;BME280;26196;52.302;10.572;2023-04-06T20:23:12;100855.97;;;13.64;38.91
40490;BME280;26196;52.302;10.572;2023-04-06T20:27:12;100840.38;;;13.57;39.83
40490;BME280;26196;52.302;10.572;2023-04-06T20:31:12;100839.53;;;13.57;40.39
40490;BME280;26196;52.302;10.572;2023-04-06T20:35:54;100845.72;;;13.56;39.71
40490;BME280;26196;52.302;10.572;2023-04-06T20:39:55;100842.31;;;13.52;38.71
40490;BME280;26196;52.302;10.572;2023-04-06T20:48:32;100838.22;;;13.44;38.65
40490;BME280;26196;52.302;10.572;2023-04-06T20:52:35;100833.94;;;13.41;37.55
40490;BME280;26196;52.302;10.572;2023-04-06T20:57:09;100843.69;;;13.38;38.66
40490;BME280;26196;52.302;10.572;2023-04-06T21:01:47;100847.19;;;13.38;37.51
40490;BME280;26196;52.302;10.572;2023-04-06T21:05:50;100847.47;;;13.29;36.55
40490;BME280;26196;52.302;10.572;2023-04-06T21:09:51;100840.53;;;13.26;37.80
40490;BME280;26196;52.302;10.572;2023-04-06T21:13:52;100852.72;;;13.29;37.27
40490;BME280;26196;52.302;10.572;2023-04-06T21:17:52;100843.13;;;13.28;36.67
40490;BME280;26196;52.302;10.572;2023-04-06T21:22:27;100843.31;;;13.22;36.37
40490;BME280;26196;52.302;10.572;2023-04-06T21:26:27;100836.28;;;13.22;36.83
40490;BME280;26196;52.302;10.572;2023-04-06T21:31:05;100834.91;;;13.10;36.42
40490;BME280;26196;52.302;10.572;2023-04-06T21:35:40;100835.09;;;13.04;36.61
40490;BME280;26196;52.302;10.572;2023-04-06T21:39:40;100832.94;;;12.90;35.58
40490;BME280;26196;52.302;10.572;2023-04-06T21:43:40;100832.03;;;12.90;36.16
40490;BME280;26196;52.302;10.572;2023-04-06T21:48:15;100835.50;;;12.92;36.26
40490;BME280;26196;52.302;10.572;2023-04-06T21:52:52;100835.69;;;12.86;36.47
40490;BME280;26196;52.302;10.572;2023-04-06T22:02:06;100824.41;;;12.82;36.65
40490;BME280;26196;52.302;10.572;2023-04-06T22:06:41;100825.56;;;12.74;36.07
40490;BME280;26196;52.302;10.572;2023-04-06T22:15:53;100818.84;;;12.65;35.65
40490;BME280;26196;52.302;10.572;2023-04-06T22:19:53;100822.41;;;12.62;36.44
40490;BME280;26196;52.302;10.572;2023-04-06T22:23:53;100825.03;;;12.62;36.13
40490;BME280;26196;52.302;10.572;2023-04-06T22:28:28;100825.94;;;12.61;35.83
40490;BME280;26196;52.302;10.572;2023-04-06T22:37:42;100823.06;;;12.69;36.67
40490;BME280;26196;52.302;10.572;2023-04-06T22:42:20;100823.84;;;12.73;36.31
40490;BME280;26196;52.302;10.572;2023-04-06T22:46:55;100822.94;;;12.74;36.45
40490;BME280;26196;52.302;10.572;2023-04-06T22:55:51;100830.72;;;12.77;36.77
40490;BME280;26196;52.302;10.572;2023-04-06T22:59:52;100829.75;;;12.79;38.09
40490;BME280;26196;52.302;10.572;2023-04-06T23:03:52;100820.16;;;12.78;36.09
40490;BME280;26196;52.302;10.572;2023-04-06T23:08:29;100828.91;;;12.79;36.35
40490;BME280;26196;52.302;10.572;2023-04-06T23:12:30;100823.66;;;12.79;36.66
40490;BME280;26196;52.302;10.572;2023-04-06T23:21:08;100827.94;;;12.81;37.89
40490;BME280;26196;52.302;10.572;2023-04-06T23:25:08;100823.66;;;12.79;37.36
40490;BME280;26196;52.302;10.572;2023-04-06T23:29:09;100819.25;;;12.79;37.77
40490;BME280;26196;52.302;10.572;2023-04-06T23:33:46;100823.66;;;12.79;37.07
40490;BME280;26196;52.302;10.572;2023-04-06T23:37:47;100827.09;;;12.81;37.40
40490;BME280;26196;52.302;10.572;2023-04-06T23:41:47;100826.31;;;12.77;36.74
40490;BME280;26196;52.302;10.572;2023-04-06T23:46:24;100823.88;;;12.71;36.23
40490;BME280;26196;52.302;10.572;2023-04-06T23:50:59;100815.34;;;12.64;36.68
40490;BME280;26196;52.302;10.572;2023-04-06T23:54:59;100818.97;;;12.60;36.53
40490;BME280;26196;52.302;10.572;2023-04-06T23:59:00;100811.19;;;12.57;36.23
